createdAt,value
2022-10-26T00:01:17.403Z,100713.69
2022-10-26T00:03:47.481Z,100769.28
2022-10-26T00:06:20.437Z,100476.31
2022-10-26T00:08:49.981Z,100624.84
2022-10-26T00:11:17.415Z,100761.50
2022-10-26T00:13:44.532Z,100721.38
2022-10-26T00:16:15.112Z,100784.31
2022-10-26T00:18:47.456Z,100603.78
2022-10-26T00:21:14.052Z,100788.22
2022-10-26T00:23:43.521Z,100778.53
2022-10-26T00:26:12.824Z,100684.91
2022-10-26T00:28:41.899Z,100597.69
2022-10-26T00:31:15.623Z,100724.38
2022-10-26T00:33:44.799Z,100571.16
2022-10-26T00:36:13.887Z,100669.25
2022-10-26T00:38:45.969Z,100566.81
2022-10-26T00:41:19.998Z,100629.72
2022-10-26T00:43:47.203Z,100571.81
2022-10-26T00:46:21.123Z,100771.44
2022-10-26T00:49:05.237Z,100572.31
2022-10-26T00:51:34.629Z,100568.50
2022-10-26T00:54:02.156Z,100766.31
2022-10-26T00:56:31.673Z,100694.59
2022-10-26T00:59:02.246Z,100682.03
2022-10-26T01:01:29.947Z,100689.06
2022-10-26T01:04:01.387Z,100445.06
2022-10-26T01:06:29.654Z,100385.91
2022-10-26T01:08:56.713Z,100706.13
2022-10-26T01:11:23.663Z,100604.25
2022-10-26T01:13:54.627Z,100626.31
2022-10-26T01:16:43.097Z,100758.41
2022-10-26T01:19:30.849Z,100760.00
2022-10-26T01:22:14.317Z,100761.09
2022-10-26T01:25:13.230Z,100768.59
2022-10-26T01:27:55.285Z,100761.09
2022-10-26T01:30:28.194Z,100576.38
2022-10-26T01:33:22.536Z,100752.00
2022-10-26T01:36:15.524Z,100750.50
2022-10-26T01:38:48.281Z,100747.78
2022-10-26T01:41:49.250Z,100748.41
2022-10-26T01:44:23.577Z,100760.56
2022-10-26T01:46:52.404Z,100676.13
2022-10-26T01:49:24.837Z,100596.63
2022-10-26T01:51:51.527Z,100552.25
2022-10-26T01:54:18.209Z,100647.53
2022-10-26T01:56:52.281Z,100761.56
2022-10-26T01:59:59.658Z,100751.59
2022-10-26T02:02:29.360Z,100749.16
2022-10-26T02:05:21.049Z,100745.91
2022-10-26T02:08:05.386Z,100516.31
2022-10-26T02:10:59.164Z,100754.88
2022-10-26T02:13:52.329Z,100424.00
2022-10-26T02:16:28.362Z,100534.66
2022-10-26T02:19:06.429Z,100584.19
2022-10-26T02:21:45.985Z,100628.66
2022-10-26T02:24:16.329Z,100496.00
2022-10-26T02:26:46.242Z,100456.69
2022-10-26T02:29:20.091Z,100643.91
2022-10-26T02:31:48.308Z,100609.16
2022-10-26T02:34:19.101Z,100656.97
2022-10-26T02:36:47.800Z,100660.44
2022-10-26T02:39:17.806Z,100441.09
2022-10-26T02:41:45.095Z,100596.44
2022-10-26T02:44:22.920Z,100615.41
2022-10-26T02:46:50.337Z,100610.47
2022-10-26T02:49:19.718Z,100596.78
2022-10-26T02:51:50.786Z,100290.72
2022-10-26T02:54:42.064Z,100718.94
2022-10-26T02:57:23.804Z,100764.84
2022-10-26T02:59:51.170Z,100767.44
2022-10-26T03:02:19.593Z,100564.31
2022-10-26T03:04:46.466Z,100661.41
2022-10-26T03:07:13.204Z,100736.94
2022-10-26T03:09:42.372Z,100593.59
2022-10-26T03:12:11.382Z,100678.38
2022-10-26T03:14:38.115Z,100597.06
2022-10-26T03:17:09.826Z,100667.53
2022-10-26T03:19:36.535Z,100682.81
2022-10-26T03:22:05.603Z,100592.38
2022-10-26T03:24:34.694Z,100638.53
2022-10-26T03:27:06.708Z,100686.19
2022-10-26T03:29:36.059Z,100781.47
2022-10-26T03:32:04.959Z,100780.69
2022-10-26T03:34:31.692Z,100710.78
2022-10-26T03:36:58.585Z,100745.25
2022-10-26T03:39:25.315Z,100756.03
2022-10-26T03:41:55.519Z,100614.03
2022-10-26T03:44:22.860Z,100766.63
2022-10-26T03:46:49.657Z,100787.88
2022-10-26T03:49:16.356Z,100702.56
2022-10-26T03:51:42.992Z,100447.13
2022-10-26T03:54:11.999Z,100640.81
2022-10-26T03:56:38.692Z,100703.19
2022-10-26T03:59:07.884Z,100686.25
2022-10-26T04:01:34.590Z,100693.63
2022-10-26T04:04:01.396Z,100800.78
2022-10-26T04:06:28.145Z,100545.50
2022-10-26T04:08:59.193Z,100589.63
2022-10-26T04:11:31.504Z,100636.28
2022-10-26T04:14:00.717Z,100797.34
2022-10-26T04:16:31.069Z,100664.47
2022-10-26T04:19:02.558Z,100662.00
2022-10-26T04:21:33.172Z,100808.69
2022-10-26T04:23:59.911Z,100665.38
2022-10-26T04:26:29.154Z,100802.84
2022-10-26T04:28:55.933Z,100491.59
2022-10-26T04:31:24.982Z,100669.19
2022-10-26T04:33:51.665Z,100718.41
2022-10-26T04:36:18.371Z,100584.09
2022-10-26T04:38:49.153Z,100705.38
2022-10-26T04:41:16.178Z,100534.44
2022-10-26T04:43:43.021Z,100509.06
2022-10-26T04:46:16.743Z,100785.47
2022-10-26T04:48:43.844Z,100708.44
2022-10-26T04:51:10.542Z,100665.94
2022-10-26T04:53:37.236Z,100672.06
2022-10-26T04:56:09.437Z,100747.28
2022-10-26T04:58:36.176Z,100716.97
2022-10-26T05:01:03.332Z,100810.06
2022-10-26T05:03:30.310Z,100673.22
2022-10-26T05:06:00.349Z,100547.69
2022-10-26T05:08:32.247Z,100682.91
2022-10-26T05:11:01.236Z,100805.19
2022-10-26T05:13:30.364Z,100637.31
2022-10-26T05:15:59.752Z,100668.22
2022-10-26T05:18:26.434Z,100815.94
2022-10-26T05:20:53.768Z,100763.50
2022-10-26T05:23:24.277Z,100776.84
2022-10-26T05:25:55.756Z,100711.19
2022-10-26T05:28:27.202Z,100561.22
2022-10-26T05:30:53.943Z,100724.81
2022-10-26T05:33:20.618Z,100601.78
2022-10-26T05:35:47.709Z,100680.19
2022-10-26T05:38:16.606Z,100838.53
2022-10-26T05:40:51.151Z,100846.38
2022-10-26T05:43:24.210Z,100562.59
2022-10-26T05:45:51.557Z,100741.31
2022-10-26T05:48:18.254Z,100668.28
2022-10-26T05:50:49.428Z,100621.84
2022-10-26T05:53:16.136Z,100691.31
2022-10-26T05:55:43.481Z,100652.28
2022-10-26T05:58:15.129Z,100770.47
2022-10-26T06:00:49.755Z,100679.94
2022-10-26T06:03:50.873Z,100709.78
2022-10-26T06:06:17.988Z,100790.84
2022-10-26T06:08:44.939Z,100724.59
2022-10-26T06:11:16.404Z,100861.56
2022-10-26T06:13:43.073Z,100858.28
2022-10-26T06:16:21.193Z,100764.50
2022-10-26T06:19:11.077Z,100755.03
2022-10-26T06:22:16.579Z,100864.97
2022-10-26T06:24:43.273Z,100865.13
2022-10-26T06:27:40.322Z,100823.59
2022-10-26T06:30:12.233Z,100826.44
2022-10-26T06:32:40.377Z,100873.31
2022-10-26T06:35:30.640Z,100872.75
2022-10-26T06:37:59.775Z,100647.38
2022-10-26T06:40:26.835Z,100836.66
2022-10-26T06:42:56.116Z,100818.78
2022-10-26T06:45:23.069Z,100640.03
2022-10-26T06:48:08.542Z,100839.63
2022-10-26T06:50:42.471Z,100876.09
2022-10-26T06:53:19.029Z,100876.34
2022-10-26T06:55:47.811Z,100825.00
2022-10-26T06:58:23.111Z,100647.31
2022-10-26T07:00:51.589Z,100605.88
2022-10-26T07:03:20.455Z,100673.16
2022-10-26T07:05:47.356Z,100611.00
2022-10-26T07:08:14.137Z,100815.53
2022-10-26T07:10:43.759Z,100752.13
2022-10-26T07:13:10.952Z,100755.16
2022-10-26T07:15:38.655Z,100876.09
2022-10-26T07:18:06.612Z,100882.38
2022-10-26T07:20:38.837Z,100886.00
2022-10-26T07:23:11.007Z,100900.22
2022-10-26T07:25:42.809Z,100726.53
2022-10-26T07:28:13.041Z,100805.41
2022-10-26T07:30:40.509Z,100841.09
2022-10-26T07:33:12.771Z,100797.19
2022-10-26T07:35:39.723Z,100801.03
2022-10-26T07:38:09.672Z,100862.94
2022-10-26T07:40:38.092Z,100885.47
2022-10-26T07:43:05.274Z,100837.88
2022-10-26T07:45:32.005Z,100898.16
2022-10-26T07:48:03.951Z,100889.78
2022-10-26T07:50:30.703Z,100841.50
2022-10-26T07:52:59.031Z,100887.81
2022-10-26T07:55:28.333Z,100775.03
2022-10-26T07:57:58.113Z,100885.78
2022-10-26T08:00:30.018Z,100857.75
2022-10-26T08:02:57.120Z,100817.91
2022-10-26T08:05:23.881Z,100862.00
2022-10-26T08:07:50.824Z,100785.22
2022-10-26T08:10:20.086Z,100776.47
2022-10-26T08:12:55.420Z,100729.69
2022-10-26T08:15:22.210Z,100745.75
2022-10-26T08:17:49.299Z,100786.63
2022-10-26T08:20:16.353Z,100805.94
2022-10-26T08:22:43.056Z,100889.66
2022-10-26T08:25:13.167Z,100823.75
2022-10-26T08:27:41.114Z,100689.66
2022-10-26T08:30:13.118Z,100766.44
2022-10-26T08:32:48.143Z,100765.94
2022-10-26T08:35:15.139Z,100832.06
2022-10-26T08:37:50.397Z,100883.63
2022-10-26T08:40:25.306Z,100830.56
2022-10-26T08:42:58.620Z,100761.44
2022-10-26T08:45:36.604Z,100842.16
2022-10-26T08:48:06.957Z,100880.56
2022-10-26T08:50:40.599Z,100883.50
2022-10-26T08:53:15.620Z,100877.66
2022-10-26T08:55:45.875Z,100757.59
2022-10-26T08:58:17.426Z,100894.09
2022-10-26T09:00:47.426Z,100836.06
2022-10-26T09:03:17.948Z,100884.84
2022-10-26T09:05:55.899Z,100887.81
2022-10-26T09:08:40.663Z,100896.00
2022-10-26T09:11:33.704Z,100890.03
2022-10-26T09:14:11.912Z,100895.38
2022-10-26T09:16:47.645Z,100890.28
2022-10-26T09:19:32.524Z,100890.47
2022-10-26T09:22:22.480Z,100802.66
2022-10-26T09:25:05.474Z,100833.59
2022-10-26T09:27:42.656Z,100861.13
2022-10-26T09:30:19.131Z,100897.59
2022-10-26T09:32:53.583Z,100817.34
2022-10-26T09:35:26.121Z,100804.44
2022-10-26T09:38:01.739Z,100908.59
2022-10-26T09:40:36.478Z,100866.41
2022-10-26T09:43:18.455Z,100883.44
2022-10-26T09:45:47.872Z,100886.19
2022-10-26T09:48:32.221Z,100839.69
2022-10-26T09:51:04.477Z,100869.59
2022-10-26T09:53:36.351Z,100826.84
2022-10-26T09:56:08.996Z,100919.34
2022-10-26T09:59:02.163Z,100792.47
2022-10-26T10:01:36.769Z,100765.47
2022-10-26T10:04:26.143Z,100915.22
2022-10-26T10:07:16.784Z,100916.75
2022-10-26T10:09:45.773Z,100812.56
2022-10-26T10:12:23.037Z,100803.13
2022-10-26T10:14:57.967Z,100670.25
2022-10-26T10:17:27.597Z,100872.41
2022-10-26T10:20:12.615Z,100849.47
2022-10-26T10:22:53.304Z,100924.34
2022-10-26T10:27:54.788Z,100817.16
2022-10-26T10:30:27.786Z,100836.97
2022-10-26T10:33:11.135Z,100870.13
2022-10-26T10:35:51.161Z,100930.09
2022-10-26T10:38:20.706Z,100724.94
2022-10-26T10:40:52.519Z,100827.94
2022-10-26T10:43:22.618Z,100821.09
2022-10-26T10:45:57.165Z,100852.03
2022-10-26T10:48:28.614Z,100910.91
2022-10-26T10:51:04.344Z,100796.47
2022-10-26T10:53:37.995Z,100908.41
2022-10-26T10:56:29.084Z,100910.25
2022-10-26T10:59:01.693Z,100915.66
2022-10-26T11:01:36.760Z,100907.03
2022-10-26T11:04:45.096Z,100909.78
2022-10-26T11:07:15.723Z,100905.41
2022-10-26T11:09:46.195Z,100908.91
2022-10-26T11:12:18.563Z,100906.28
2022-10-26T11:14:52.719Z,100774.19
2022-10-26T11:17:24.937Z,100909.84
2022-10-26T11:19:56.800Z,100825.31
2022-10-26T11:22:35.362Z,100849.97
2022-10-26T11:25:29.973Z,100904.41
2022-10-26T11:28:05.062Z,100760.00
2022-10-26T11:30:34.103Z,100905.38
2022-10-26T11:33:02.070Z,100888.69
2022-10-26T11:35:44.074Z,100804.13
2022-10-26T11:38:27.995Z,100889.94
2022-10-26T11:41:20.204Z,100728.13
2022-10-26T11:43:53.952Z,100822.50
2022-10-26T11:46:28.720Z,100893.13
2022-10-26T11:49:16.692Z,100893.19
2022-10-26T11:51:49.101Z,100790.25
2022-10-26T11:54:32.047Z,100818.47
2022-10-26T11:57:01.987Z,100881.66
2022-10-26T11:59:33.324Z,100864.75
2022-10-26T12:02:08.266Z,100778.56
2022-10-26T12:04:41.733Z,100886.97
2022-10-26T12:07:16.119Z,100822.66
2022-10-26T12:09:47.329Z,100861.19
2022-10-26T12:12:42.824Z,100886.66
2022-10-26T12:15:40.053Z,100880.69
2022-10-26T12:18:43.047Z,100887.09
2022-10-26T12:21:13.771Z,100892.53
2022-10-26T12:24:01.729Z,100886.53
2022-10-26T12:26:34.000Z,100884.03
2022-10-26T12:29:03.933Z,100873.69
2022-10-26T12:31:36.591Z,100886.00
2022-10-26T12:34:13.299Z,100874.59
2022-10-26T12:36:49.107Z,100877.22
2022-10-26T12:39:35.022Z,100872.84
2022-10-26T12:42:04.911Z,100871.06
2022-10-26T12:44:33.602Z,100869.25
2022-10-26T12:47:01.107Z,100801.56
2022-10-26T12:50:01.185Z,100865.50
2022-10-26T12:52:34.452Z,100839.06
2022-10-26T12:55:15.467Z,100817.19
2022-10-26T12:57:59.602Z,100863.06
2022-10-26T13:00:29.349Z,100862.19
2022-10-26T13:03:14.809Z,100866.56
2022-10-26T13:06:02.861Z,100864.84
2022-10-26T13:08:48.787Z,100830.63
2022-10-26T13:11:38.284Z,100873.72
2022-10-26T13:14:06.940Z,100775.28
2022-10-26T13:16:36.435Z,100820.94
2022-10-26T13:19:05.795Z,100780.44
2022-10-26T13:21:46.028Z,100853.44
2022-10-26T13:24:14.019Z,100743.59
2022-10-26T13:27:05.786Z,100864.88
2022-10-26T13:29:33.226Z,100875.44
2022-10-26T13:32:00.154Z,100727.78
2022-10-26T13:34:32.010Z,100783.16
2022-10-26T13:37:24.024Z,100876.34
2022-10-26T13:39:55.961Z,100862.22
2022-10-26T13:45:31.981Z,100882.34
2022-10-26T13:48:06.354Z,100891.91
2022-10-26T13:50:52.368Z,100822.34
2022-10-26T13:53:45.198Z,100885.69
2022-10-26T13:56:38.312Z,100868.94
2022-10-26T13:59:05.948Z,100886.56
2022-10-26T14:01:35.563Z,100828.44
2022-10-26T14:04:18.681Z,100861.91
2022-10-26T14:06:51.480Z,100808.19
2022-10-26T14:09:23.136Z,100896.19
2022-10-26T14:11:51.114Z,100899.69
2022-10-26T14:14:22.844Z,100822.16
2022-10-26T14:16:56.243Z,100794.03
2022-10-26T14:19:41.294Z,100844.19
2022-10-26T14:22:08.270Z,100875.91
2022-10-26T14:24:47.232Z,100888.22
2022-10-26T14:27:18.978Z,100793.13
2022-10-26T14:29:49.955Z,100856.44
2022-10-26T14:32:32.191Z,100792.97
2022-10-26T14:35:01.042Z,100896.91
2022-10-26T14:38:06.727Z,100899.50
2022-10-26T14:40:38.165Z,100821.16
2022-10-26T14:43:05.560Z,100843.16
2022-10-26T14:45:48.584Z,100883.72
2022-10-26T14:48:36.375Z,100874.75
2022-10-26T14:51:14.816Z,100880.03
2022-10-26T14:53:49.257Z,100829.81
2022-10-26T14:56:33.024Z,100849.16
2022-10-26T14:59:10.027Z,100757.53
2022-10-26T15:02:00.011Z,100892.94
2022-10-26T15:04:34.070Z,100896.25
2022-10-26T15:07:23.278Z,100891.88
2022-10-26T15:09:51.546Z,100866.31
2022-10-26T15:12:19.779Z,100823.03
2022-10-26T15:14:49.720Z,100733.22
2022-10-26T15:17:27.783Z,100890.75
2022-10-26T15:19:57.938Z,100845.78
2022-10-26T15:22:31.828Z,100901.31
2022-10-26T15:25:04.336Z,100884.31
2022-10-26T15:27:33.305Z,100884.50
2022-10-26T15:30:22.765Z,100910.97
2022-10-26T15:32:49.753Z,100789.47
2022-10-26T15:35:19.683Z,100910.00
2022-10-26T15:37:47.109Z,100891.25
2022-10-26T15:40:14.644Z,100815.28
2022-10-26T15:42:42.838Z,100814.31
2022-10-26T15:45:26.137Z,100763.97
2022-10-26T15:47:53.829Z,100889.22
2022-10-26T15:50:23.391Z,100923.59
2022-10-26T15:52:56.504Z,100741.06
2022-10-26T15:55:23.241Z,100888.41
2022-10-26T15:57:53.365Z,100928.19
2022-10-26T16:00:22.528Z,100791.59
2022-10-26T16:02:51.488Z,100797.72
2022-10-26T16:05:18.384Z,100884.09
2022-10-26T16:07:49.559Z,100826.06
2022-10-26T16:10:26.896Z,100829.69
2022-10-26T16:12:55.990Z,100928.34
2022-10-26T16:15:25.719Z,100867.50
2022-10-26T16:17:55.027Z,100766.16
2022-10-26T16:20:23.931Z,100962.53
2022-10-26T16:22:52.861Z,100941.53
2022-10-26T16:25:25.188Z,100769.69
2022-10-26T16:27:53.233Z,100761.69
2022-10-26T16:30:25.833Z,100952.91
2022-10-26T16:32:57.328Z,100848.72
2022-10-26T16:35:26.561Z,100959.00
2022-10-26T16:37:53.446Z,100947.50
2022-10-26T16:40:20.188Z,100907.72
2022-10-26T16:42:49.435Z,100972.03
2022-10-26T16:45:18.695Z,100968.47
2022-10-26T16:47:48.685Z,100962.28
2022-10-26T16:50:21.450Z,100934.88
2022-10-26T16:52:56.689Z,100939.34
2022-10-26T16:55:30.779Z,100973.75
2022-10-26T16:58:00.139Z,100921.69
2022-10-26T17:00:29.434Z,100897.91
2022-10-26T17:02:56.278Z,100982.44
2022-10-26T17:05:26.404Z,100938.31
2022-10-26T17:07:53.636Z,100906.53
2022-10-26T17:10:20.729Z,100929.50
2022-10-26T17:12:47.729Z,100862.53
2022-10-26T17:15:17.412Z,100976.31
2022-10-26T17:17:46.702Z,100978.84
2022-10-26T17:20:14.867Z,100920.50
2022-10-26T17:22:46.431Z,100835.81
2022-10-26T17:25:13.228Z,100997.03
2022-10-26T17:27:49.753Z,100922.03
2022-10-26T17:30:16.655Z,100984.59
2022-10-26T17:32:45.867Z,101004.00
2022-10-26T17:35:13.446Z,100920.00
2022-10-26T17:37:41.099Z,100837.13
2022-10-26T17:40:08.448Z,100945.59
2022-10-26T17:42:35.204Z,100928.78
2022-10-26T17:45:02.065Z,100954.28
2022-10-26T17:47:28.830Z,100895.13
2022-10-26T17:49:55.523Z,101007.16
2022-10-26T17:52:24.883Z,100858.97
2022-10-26T17:54:56.272Z,100847.63
2022-10-26T17:57:29.036Z,101013.38
2022-10-26T17:59:58.249Z,100843.81
2022-10-26T18:02:25.002Z,101013.06
2022-10-26T18:04:54.071Z,101004.16
2022-10-26T18:07:20.901Z,101034.13
2022-10-26T18:09:47.600Z,101000.38
2022-10-26T18:12:17.150Z,101025.81
2022-10-26T18:14:44.137Z,100911.66
2022-10-26T18:17:10.973Z,100921.97
2022-10-26T18:19:39.916Z,101030.63
2022-10-26T18:22:06.652Z,101030.66
2022-10-26T18:24:36.754Z,101012.84
2022-10-26T18:27:09.524Z,100911.22
2022-10-26T18:29:39.820Z,100940.38
2022-10-26T18:32:07.134Z,100977.47
2022-10-26T18:34:36.185Z,101040.06
2022-10-26T18:37:07.246Z,101017.94
2022-10-26T18:39:34.124Z,101055.66
2022-10-26T18:42:05.736Z,101050.22
2022-10-26T18:44:32.663Z,100967.06
2022-10-26T18:46:59.522Z,100929.06
2022-10-26T18:49:26.963Z,101054.44
2022-10-26T18:51:53.911Z,101011.00
2022-10-26T18:54:28.287Z,101048.06
2022-10-26T18:57:02.313Z,100964.06
2022-10-26T18:59:29.083Z,101041.91
2022-10-26T19:01:55.947Z,100975.44
2022-10-26T19:04:22.853Z,101018.41
2022-10-26T19:06:51.849Z,100908.00
2022-10-26T19:09:21.045Z,101059.84
2022-10-26T19:11:47.996Z,101072.81
2022-10-26T19:14:14.898Z,101088.34
2022-10-26T19:16:46.781Z,101053.84
2022-10-26T19:19:15.087Z,100933.19
2022-10-26T19:21:44.566Z,100948.97
2022-10-26T19:24:14.461Z,101099.91
2022-10-26T19:26:43.738Z,101111.06
2022-10-26T19:29:16.765Z,101121.47
2022-10-26T19:31:47.283Z,101031.94
2022-10-26T19:34:42.509Z,101115.03
2022-10-26T19:37:15.017Z,101016.50
2022-10-26T19:39:44.110Z,100979.22
2022-10-26T19:42:15.756Z,101110.97
2022-10-26T19:44:42.550Z,101125.03
2022-10-26T19:47:09.459Z,100918.78
2022-10-26T19:49:36.178Z,101016.91
2022-10-26T19:52:03.199Z,101081.31
2022-10-26T19:54:30.052Z,101022.84
2022-10-26T19:56:57.389Z,101157.06
2022-10-26T19:59:26.862Z,101072.41
2022-10-26T20:01:57.811Z,101040.53
2022-10-26T20:04:25.000Z,101147.59
2022-10-26T20:06:54.227Z,101160.75
2022-10-26T20:09:23.484Z,101157.25
2022-10-26T20:11:52.812Z,101024.47
2022-10-26T20:14:19.729Z,101055.34
2022-10-26T20:16:49.017Z,101065.28
2022-10-26T20:19:15.762Z,101023.50
2022-10-26T20:21:44.867Z,101064.03
2022-10-26T20:24:14.144Z,101044.34
2022-10-26T20:26:40.925Z,101056.63
2022-10-26T20:29:10.448Z,101104.38
2022-10-26T20:31:37.161Z,101004.22
2022-10-26T20:34:10.910Z,101065.16
2022-10-26T20:36:37.747Z,101151.97
2022-10-26T20:39:09.695Z,101099.59
2022-10-26T20:41:48.568Z,101060.41
2022-10-26T20:44:22.869Z,101081.41
2022-10-26T20:46:49.991Z,101084.06
2022-10-26T20:49:18.932Z,101170.88
2022-10-26T20:52:19.933Z,101055.88
2022-10-26T20:54:49.858Z,101173.47
2022-10-26T20:57:28.659Z,101140.84
2022-10-26T21:00:03.881Z,101173.66
2022-10-26T21:02:31.090Z,100976.28
2022-10-26T21:05:00.396Z,101103.53
2022-10-26T21:07:29.580Z,101133.63
2022-10-26T21:09:56.434Z,101146.00
2022-10-26T21:12:25.883Z,101031.00
2022-10-26T21:14:52.563Z,101115.91
2022-10-26T21:17:19.296Z,101038.94
2022-10-26T21:19:48.303Z,101177.22
2022-10-26T21:22:15.818Z,101077.34
2022-10-26T21:24:44.703Z,101132.88
2022-10-26T21:27:13.605Z,101100.13
2022-10-26T21:29:40.376Z,101194.59
2022-10-26T21:32:07.062Z,101173.38
2022-10-26T21:34:38.447Z,101063.88
2022-10-26T21:37:05.255Z,101181.53
2022-10-26T21:39:31.980Z,101077.88
2022-10-26T21:42:01.024Z,101113.97
2022-10-26T21:44:43.066Z,101132.38
2022-10-26T21:47:12.798Z,101151.22
2022-10-26T21:52:11.642Z,101054.69
2022-10-26T21:54:38.346Z,101070.59
2022-10-26T21:57:05.118Z,101049.38
2022-10-26T21:59:36.322Z,101065.03
2022-10-26T22:02:05.644Z,101107.03
2022-10-26T22:04:34.620Z,101191.25
2022-10-26T22:07:03.614Z,101187.81
2022-10-26T22:09:30.688Z,101037.91
2022-10-26T22:11:59.554Z,101105.28
2022-10-26T22:14:26.409Z,101191.91
2022-10-26T22:16:53.102Z,101142.41
2022-10-26T22:19:19.863Z,101135.94
2022-10-26T22:21:46.549Z,101061.53
2022-10-26T22:24:15.517Z,101133.22
2022-10-26T22:26:42.165Z,101138.16
2022-10-26T22:29:09.364Z,101115.72
2022-10-26T22:31:39.344Z,101205.25
2022-10-26T22:34:10.350Z,101104.31
2022-10-26T22:36:37.186Z,101201.63
2022-10-26T22:39:04.317Z,101205.03
2022-10-26T22:41:31.000Z,101167.06
2022-10-26T22:43:57.661Z,101112.66
2022-10-26T22:46:28.041Z,101060.13
2022-10-26T22:48:59.662Z,101214.22
2022-10-26T22:51:33.511Z,101211.69
2022-10-26T22:54:05.756Z,101128.44
2022-10-26T22:56:37.238Z,101177.81
2022-10-26T22:59:05.282Z,101086.41
2022-10-26T23:01:35.856Z,101141.00
2022-10-26T23:04:02.981Z,101121.53
2022-10-26T23:06:31.303Z,101227.59
2022-10-26T23:08:58.311Z,101238.63
2022-10-26T23:11:27.506Z,101223.72
2022-10-26T23:13:58.492Z,101110.13
2022-10-26T23:16:25.940Z,101154.03
2022-10-26T23:18:55.553Z,101231.38
2022-10-26T23:21:23.646Z,101164.00
2022-10-26T23:23:50.441Z,101156.97
2022-10-26T23:26:19.488Z,101233.75
2022-10-26T23:28:46.512Z,101061.38
2022-10-26T23:31:17.025Z,101089.03
2022-10-26T23:33:46.156Z,101096.09
2022-10-26T23:36:15.249Z,101069.69
2022-10-26T23:38:42.007Z,101055.38
2022-10-26T23:41:15.933Z,101227.34
2022-10-26T23:43:42.692Z,101236.91
2022-10-26T23:46:11.821Z,101194.41
2022-10-26T23:48:38.687Z,101072.56
2022-10-26T23:51:10.372Z,101234.28
2022-10-26T23:53:36.850Z,101230.78
2022-10-26T23:56:03.623Z,101067.47
2022-10-26T23:58:32.546Z,101170.28
